createdAt,value
2019-05-26T00:02:23.085Z,70.50
2019-05-26T00:04:51.628Z,70.50
2019-05-26T00:07:30.344Z,70.50
2019-05-26T00:09:50.115Z,70.60
2019-05-26T00:12:18.719Z,70.70
2019-05-26T00:14:47.158Z,70.50
2019-05-26T00:17:15.588Z,70.00
2019-05-26T00:19:44.046Z,70.00
2019-05-26T00:22:12.473Z,70.00
2019-05-26T00:24:40.984Z,69.70
2019-05-26T00:27:09.436Z,70.10
2019-05-26T00:29:37.856Z,70.20
2019-05-26T00:32:06.293Z,70.20
2019-05-26T00:34:34.822Z,70.60
2019-05-26T00:37:03.175Z,70.30
2019-05-26T00:39:31.596Z,70.40
2019-05-26T00:42:00.087Z,70.30
2019-05-26T00:44:28.480Z,70.40
2019-05-26T00:46:56.903Z,70.50
2019-05-26T00:49:25.364Z,70.40
2019-05-26T00:51:53.784Z,70.30
2019-05-26T00:54:22.475Z,70.30
2019-05-26T00:56:50.927Z,71.60
2019-05-26T00:59:19.351Z,70.70
2019-05-26T01:01:47.943Z,70.90
2019-05-26T01:04:16.398Z,70.90
2019-05-26T01:06:45.227Z,71.10
2019-05-26T01:09:13.644Z,70.80
2019-05-26T01:11:42.094Z,70.60
2019-05-26T01:14:10.528Z,70.70
2019-05-26T01:16:38.941Z,70.80
2019-05-26T01:19:07.397Z,70.80
2019-05-26T01:21:35.828Z,71.10
2019-05-26T01:24:04.255Z,71.10
2019-05-26T01:26:32.695Z,71.00
2019-05-26T01:29:01.119Z,70.90
2019-05-26T01:31:29.556Z,70.90
2019-05-26T01:33:58.027Z,71.20
2019-05-26T01:36:26.436Z,71.10
2019-05-26T01:38:54.858Z,70.80
2019-05-26T01:41:23.303Z,70.80
2019-05-26T01:43:51.725Z,70.60
2019-05-26T01:46:20.567Z,70.50
2019-05-26T01:48:49.056Z,70.50
2019-05-26T01:51:17.456Z,70.60
2019-05-26T01:53:45.871Z,70.60
2019-05-26T01:56:14.332Z,70.90
2019-05-26T01:58:42.752Z,71.00
2019-05-26T02:01:11.175Z,71.00
2019-05-26T02:03:39.638Z,70.90
2019-05-26T02:06:08.060Z,70.70
2019-05-26T02:08:39.775Z,71.10
2019-05-26T02:11:06.600Z,71.20
2019-05-26T02:13:35.007Z,71.10
2019-05-26T02:16:03.428Z,70.90
2019-05-26T02:18:31.877Z,71.10
2019-05-26T02:21:00.305Z,71.20
2019-05-26T02:23:28.735Z,71.10
2019-05-26T02:25:57.180Z,71.10
2019-05-26T02:28:25.594Z,71.20
2019-05-26T02:30:54.092Z,71.20
2019-05-26T02:33:22.537Z,71.20
2019-05-26T02:35:50.956Z,71.20
2019-05-26T02:38:19.369Z,71.20
2019-05-26T02:40:47.821Z,71.10
2019-05-26T02:43:16.251Z,71.20
2019-05-26T02:45:44.664Z,71.20
2019-05-26T02:48:13.112Z,72.00
2019-05-26T02:50:41.553Z,71.20
2019-05-26T02:53:09.975Z,71.20
2019-05-26T02:55:38.407Z,71.10
2019-05-26T02:58:06.847Z,71.40
2019-05-26T03:00:38.521Z,71.60
2019-05-26T03:03:06.992Z,71.50
2019-05-26T03:05:35.424Z,71.30
2019-05-26T03:08:03.841Z,70.90
2019-05-26T03:10:32.295Z,71.00
2019-05-26T03:13:00.711Z,71.40
2019-05-26T03:15:29.146Z,71.40
2019-05-26T03:17:57.598Z,71.40
2019-05-26T03:20:26.016Z,71.40
2019-05-26T03:22:54.440Z,71.50
2019-05-26T03:25:22.895Z,71.40
2019-05-26T03:27:51.358Z,71.60
2019-05-26T03:30:19.740Z,71.40
2019-05-26T03:32:48.199Z,71.50
2019-05-26T03:35:16.618Z,71.40
2019-05-26T03:37:45.040Z,71.50
2019-05-26T03:40:13.486Z,71.50
2019-05-26T03:42:41.910Z,71.50
2019-05-26T03:45:11.947Z,71.60
2019-05-26T03:47:40.405Z,71.70
2019-05-26T03:50:08.888Z,71.70
2019-05-26T03:52:37.299Z,71.70
2019-05-26T03:55:07.451Z,71.60
2019-05-26T03:57:35.911Z,71.60
2019-05-26T04:00:08.713Z,71.60
2019-05-26T04:02:37.165Z,71.70
2019-05-26T04:05:08.575Z,71.70
2019-05-26T04:07:36.992Z,71.60
2019-05-26T04:10:06.593Z,71.70
2019-05-26T04:12:35.023Z,71.80
2019-05-26T04:15:04.994Z,71.40
2019-05-26T04:17:33.449Z,71.30
2019-05-26T04:20:01.865Z,71.40
2019-05-26T04:22:30.280Z,71.30
2019-05-26T04:24:58.733Z,71.50
2019-05-26T04:27:27.152Z,71.50
2019-05-26T04:29:55.871Z,71.60
2019-05-26T04:32:24.310Z,72.00
2019-05-26T04:34:52.727Z,72.20
2019-05-26T04:37:21.163Z,72.10
2019-05-26T04:39:49.615Z,72.00
2019-05-26T04:42:18.043Z,72.00
2019-05-26T04:44:46.470Z,72.00
2019-05-26T04:47:15.033Z,71.90
2019-05-26T04:49:43.447Z,72.00
2019-05-26T04:52:11.881Z,71.90
2019-05-26T04:54:40.326Z,72.00
2019-05-26T04:57:08.742Z,72.00
2019-05-26T04:59:37.170Z,71.90
2019-05-26T05:02:05.613Z,71.90
2019-05-26T05:04:34.031Z,72.10
2019-05-26T05:07:02.473Z,72.10
2019-05-26T05:09:30.918Z,72.20
2019-05-26T05:11:59.664Z,72.20
2019-05-26T05:14:28.071Z,72.30
2019-05-26T05:16:56.528Z,72.10
2019-05-26T05:19:24.955Z,72.00
2019-05-26T05:21:53.382Z,71.80
2019-05-26T05:24:21.841Z,71.80
2019-05-26T05:26:50.254Z,72.00
2019-05-26T05:29:18.688Z,72.10
2019-05-26T05:31:47.190Z,72.00
2019-05-26T05:34:15.606Z,72.20
2019-05-26T05:36:44.029Z,72.60
2019-05-26T05:39:12.481Z,72.60
2019-05-26T05:41:40.906Z,72.70
2019-05-26T05:44:09.334Z,72.60
2019-05-26T05:46:37.789Z,72.60
2019-05-26T05:49:06.238Z,72.60
2019-05-26T05:51:34.676Z,73.00
2019-05-26T05:54:03.110Z,73.10
2019-05-26T05:56:31.540Z,74.20
2019-05-26T05:59:00.048Z,72.90
2019-05-26T06:01:28.492Z,72.30
2019-05-26T06:03:56.907Z,71.70
2019-05-26T06:06:25.331Z,71.30
2019-05-26T06:08:53.776Z,71.30
2019-05-26T06:11:22.204Z,71.30
2019-05-26T06:13:52.141Z,71.20
2019-05-26T06:16:20.699Z,71.30
2019-05-26T06:18:49.115Z,71.30
2019-05-26T06:21:17.534Z,71.40
2019-05-26T06:23:46.000Z,71.40
2019-05-26T06:26:14.411Z,71.20
2019-05-26T06:28:42.842Z,70.90
2019-05-26T06:31:11.286Z,70.80
2019-05-26T06:33:39.707Z,70.70
2019-05-26T06:36:08.123Z,70.70
2019-05-26T06:38:36.583Z,71.00
2019-05-26T06:41:04.982Z,70.50
2019-05-26T06:43:33.397Z,70.30
2019-05-26T06:46:01.847Z,70.20
2019-05-26T06:48:30.262Z,70.00
2019-05-26T06:50:58.703Z,70.00
2019-05-26T06:53:27.142Z,70.10
2019-05-26T06:55:55.555Z,69.20
2019-05-26T06:58:23.966Z,69.40
2019-05-26T07:00:52.604Z,69.30
2019-05-26T07:03:21.108Z,68.90
2019-05-26T07:05:49.547Z,69.10
2019-05-26T07:08:18.037Z,69.10
2019-05-26T07:10:46.455Z,68.90
2019-05-26T07:13:14.874Z,68.40
2019-05-26T07:15:43.325Z,68.00
2019-05-26T07:18:11.888Z,68.20
2019-05-26T07:20:40.316Z,68.20
2019-05-26T07:23:09.294Z,67.80
2019-05-26T07:25:38.036Z,67.30
2019-05-26T07:28:06.459Z,66.50
2019-05-26T07:30:34.919Z,67.00
2019-05-26T07:33:03.383Z,67.20
2019-05-26T07:35:33.258Z,67.20
2019-05-26T07:38:01.919Z,66.90
2019-05-26T07:40:30.339Z,66.70
2019-05-26T07:42:58.763Z,66.50
2019-05-26T07:45:27.224Z,66.70
2019-05-26T07:47:55.656Z,66.30
2019-05-26T07:50:24.073Z,66.40
2019-05-26T07:52:52.535Z,65.90
2019-05-26T07:55:20.966Z,65.80
2019-05-26T07:57:49.380Z,66.40
2019-05-26T08:00:18.904Z,65.40
2019-05-26T08:02:47.328Z,65.00
2019-05-26T08:05:15.754Z,64.90
2019-05-26T08:07:44.198Z,64.50
2019-05-26T08:10:12.688Z,65.10
2019-05-26T08:12:41.114Z,64.50
2019-05-26T08:15:09.582Z,64.80
2019-05-26T08:17:38.007Z,64.40
2019-05-26T08:20:07.373Z,64.70
2019-05-26T08:22:35.832Z,64.20
2019-05-26T08:25:09.280Z,63.30
2019-05-26T08:27:37.701Z,63.50
2019-05-26T08:30:07.519Z,63.70
2019-05-26T08:32:35.939Z,63.10
2019-05-26T08:35:08.527Z,63.10
2019-05-26T08:37:36.981Z,62.60
2019-05-26T08:40:18.124Z,62.50
2019-05-26T08:42:49.776Z,62.50
2019-05-26T08:45:21.867Z,62.90
2019-05-26T08:47:49.971Z,62.50
2019-05-26T08:50:18.535Z,62.00
2019-05-26T08:52:46.972Z,62.30
2019-05-26T08:55:15.404Z,62.30
2019-05-26T08:57:43.828Z,61.30
2019-05-26T09:00:12.310Z,61.30
2019-05-26T09:02:40.731Z,61.30
2019-05-26T09:05:09.259Z,60.60
2019-05-26T09:07:37.680Z,60.00
2019-05-26T09:10:06.898Z,59.90
2019-05-26T09:12:35.319Z,59.30
2019-05-26T09:15:05.180Z,59.20
2019-05-26T09:17:33.603Z,59.20
2019-05-26T09:20:02.062Z,58.70
2019-05-26T09:22:30.471Z,57.90
2019-05-26T09:24:58.891Z,58.50
2019-05-26T09:27:27.335Z,57.60
2019-05-26T09:29:55.759Z,57.60
2019-05-26T09:32:24.211Z,57.70
2019-05-26T09:34:52.652Z,57.60
2019-05-26T09:37:21.063Z,57.30
2019-05-26T09:39:49.494Z,56.60
2019-05-26T09:42:17.943Z,56.30
2019-05-26T09:44:46.351Z,55.90
2019-05-26T09:47:14.775Z,55.90
2019-05-26T09:49:43.227Z,55.90
2019-05-26T09:52:11.716Z,56.10
2019-05-26T09:54:40.138Z,55.70
2019-05-26T09:57:08.591Z,55.40
2019-05-26T09:59:37.031Z,55.10
2019-05-26T10:02:05.930Z,55.00
2019-05-26T10:04:34.387Z,54.80
2019-05-26T10:07:02.808Z,54.20
2019-05-26T10:09:31.233Z,54.20
2019-05-26T10:11:59.672Z,53.60
2019-05-26T10:14:28.089Z,53.20
2019-05-26T10:16:56.599Z,52.70
2019-05-26T10:19:25.056Z,53.10
2019-05-26T10:21:53.480Z,52.80
2019-05-26T10:24:21.912Z,53.00
2019-05-26T10:26:50.366Z,52.20
2019-05-26T10:29:18.783Z,52.30
2019-05-26T10:31:47.232Z,52.40
2019-05-26T10:34:15.672Z,52.50
2019-05-26T10:36:44.103Z,52.40
2019-05-26T10:39:12.520Z,53.10
2019-05-26T10:41:40.962Z,52.10
2019-05-26T10:44:09.390Z,52.10
2019-05-26T10:46:37.802Z,51.40
2019-05-26T10:49:06.252Z,51.80
2019-05-26T10:51:34.664Z,51.10
2019-05-26T10:54:03.088Z,50.00
2019-05-26T10:56:31.532Z,49.80
2019-05-26T10:58:59.947Z,50.10
2019-05-26T11:01:28.503Z,50.90
2019-05-26T11:03:56.973Z,50.10
2019-05-26T11:06:25.407Z,50.50
2019-05-26T11:08:53.816Z,49.50
2019-05-26T11:11:22.268Z,50.00
2019-05-26T11:14:02.517Z,50.30
2019-05-26T11:16:20.751Z,50.20
2019-05-26T11:18:49.227Z,50.00
2019-05-26T11:21:17.657Z,49.80
2019-05-26T11:23:46.067Z,50.00
2019-05-26T11:26:14.525Z,49.90
2019-05-26T11:28:42.933Z,50.30
2019-05-26T11:31:11.351Z,50.40
2019-05-26T11:33:39.955Z,50.40
2019-05-26T11:36:08.379Z,50.10
2019-05-26T11:38:36.795Z,49.90
2019-05-26T11:41:05.252Z,50.00
2019-05-26T11:43:33.674Z,50.00
2019-05-26T11:46:02.082Z,50.00
2019-05-26T11:48:30.539Z,49.50
2019-05-26T11:50:58.957Z,49.60
2019-05-26T11:53:27.837Z,49.40
2019-05-26T11:55:56.275Z,49.70
2019-05-26T11:58:24.705Z,49.70
2019-05-26T12:00:53.127Z,49.70
2019-05-26T12:03:21.567Z,49.30
2019-05-26T12:05:49.988Z,49.40
2019-05-26T12:08:18.403Z,49.40
2019-05-26T12:10:46.858Z,49.30
2019-05-26T12:13:15.363Z,49.00
2019-05-26T12:15:43.787Z,49.30
2019-05-26T12:18:12.245Z,49.20
2019-05-26T12:20:40.666Z,49.30
2019-05-26T12:23:09.077Z,49.60
2019-05-26T12:25:37.686Z,49.60
2019-05-26T12:28:06.107Z,49.70
2019-05-26T12:30:34.538Z,49.40
2019-05-26T12:33:03.006Z,49.60
2019-05-26T12:35:45.304Z,49.70
2019-05-26T12:38:13.751Z,49.20
2019-05-26T12:40:42.352Z,48.30
2019-05-26T12:43:10.859Z,48.00
2019-05-26T12:45:39.298Z,48.00
2019-05-26T12:48:07.722Z,47.60
2019-05-26T12:50:36.141Z,47.10
2019-05-26T12:53:05.034Z,47.50
2019-05-26T12:55:33.463Z,47.50
2019-05-26T12:58:01.880Z,47.50
2019-05-26T13:00:47.065Z,47.10
2019-05-26T13:03:00.395Z,47.10
2019-05-26T13:05:29.133Z,47.20
2019-05-26T13:07:57.588Z,47.60
2019-05-26T13:10:26.007Z,47.30
2019-05-26T13:12:54.440Z,47.10
2019-05-26T13:15:22.959Z,47.20
2019-05-26T13:17:51.375Z,47.20
2019-05-26T13:20:21.259Z,47.00
2019-05-26T13:22:49.712Z,47.10
2019-05-26T13:25:18.125Z,47.40
2019-05-26T13:27:46.551Z,47.30
2019-05-26T13:30:23.345Z,47.40
2019-05-26T13:32:51.772Z,47.20
2019-05-26T13:35:20.752Z,47.20
2019-05-26T13:37:49.224Z,46.80
2019-05-26T13:40:17.636Z,47.60
2019-05-26T13:42:46.054Z,46.50
2019-05-26T13:45:22.378Z,46.40
2019-05-26T13:47:44.638Z,46.10
2019-05-26T13:50:13.443Z,45.60
2019-05-26T13:52:41.897Z,45.80
2019-05-26T13:55:10.323Z,44.70
2019-05-26T13:57:38.738Z,45.20
2019-05-26T14:00:09.447Z,44.90
2019-05-26T14:02:37.948Z,44.50
2019-05-26T14:05:07.989Z,41.70
2019-05-26T14:07:36.451Z,43.00
2019-05-26T14:10:05.706Z,43.60
2019-05-26T14:12:34.194Z,43.50
2019-05-26T14:15:02.656Z,43.80
2019-05-26T14:17:31.074Z,43.10
2019-05-26T14:19:59.482Z,43.10
2019-05-26T14:22:27.927Z,42.90
2019-05-26T14:24:56.332Z,43.30
2019-05-26T14:27:24.746Z,43.50
2019-05-26T14:29:53.270Z,43.50
2019-05-26T14:32:21.692Z,43.40
2019-05-26T14:34:50.116Z,42.90
2019-05-26T14:37:18.553Z,43.70
2019-05-26T14:39:49.856Z,43.80
2019-05-26T14:42:17.036Z,44.00
2019-05-26T14:44:45.500Z,43.80
2019-05-26T14:47:13.906Z,43.50
2019-05-26T14:49:42.332Z,44.00
2019-05-26T14:52:10.778Z,44.00
2019-05-26T14:54:39.190Z,44.10
2019-05-26T14:57:07.607Z,44.00
2019-05-26T14:59:36.054Z,43.60
2019-05-26T15:02:04.542Z,43.90
2019-05-26T15:04:32.967Z,44.20
2019-05-26T15:07:01.428Z,44.10
2019-05-26T15:09:29.850Z,44.20
2019-05-26T15:11:58.257Z,43.30
2019-05-26T15:14:26.700Z,42.90
2019-05-26T15:16:55.126Z,43.50
2019-05-26T15:19:23.546Z,43.40
2019-05-26T15:21:52.007Z,43.40
2019-05-26T15:24:20.415Z,42.90
2019-05-26T15:26:48.842Z,43.10
2019-05-26T15:29:17.298Z,41.90
2019-05-26T15:31:45.714Z,42.00
2019-05-26T15:34:14.132Z,42.30
2019-05-26T15:36:42.598Z,42.80
2019-05-26T15:39:11.382Z,42.60
2019-05-26T15:41:39.798Z,42.80
2019-05-26T15:44:08.247Z,42.50
2019-05-26T15:46:36.658Z,42.60
2019-05-26T15:49:05.092Z,42.50
2019-05-26T15:51:33.533Z,42.70
2019-05-26T15:54:01.946Z,42.80
2019-05-26T15:56:30.378Z,42.70
2019-05-26T15:58:58.820Z,42.80
2019-05-26T16:01:27.230Z,43.00
2019-05-26T16:03:55.642Z,43.10
2019-05-26T16:06:24.172Z,42.70
2019-05-26T16:08:52.589Z,43.30
2019-05-26T16:11:21.009Z,43.40
2019-05-26T16:13:49.490Z,43.70
2019-05-26T16:16:18.738Z,43.70
2019-05-26T16:18:47.152Z,43.90
2019-05-26T16:21:27.632Z,44.00
2019-05-26T16:23:45.702Z,44.10
2019-05-26T16:26:14.107Z,44.20
2019-05-26T16:28:42.557Z,44.30
2019-05-26T16:31:12.350Z,44.20
2019-05-26T16:33:41.010Z,43.90
2019-05-26T16:36:09.476Z,43.90
2019-05-26T16:38:37.905Z,44.00
2019-05-26T16:41:06.884Z,44.30
2019-05-26T16:43:35.381Z,43.90
2019-05-26T16:46:04.062Z,44.20
2019-05-26T16:48:32.477Z,44.30
2019-05-26T16:51:00.942Z,44.20
2019-05-26T16:53:29.372Z,44.20
2019-05-26T16:55:57.793Z,44.30
2019-05-26T16:58:26.233Z,44.30
2019-05-26T17:00:54.666Z,44.70
2019-05-26T17:03:23.079Z,44.60
2019-05-26T17:06:05.240Z,44.80
2019-05-26T17:08:21.574Z,45.00
2019-05-26T17:10:50.006Z,45.50
2019-05-26T17:13:18.450Z,45.00
2019-05-26T17:15:46.865Z,45.20
2019-05-26T17:18:15.280Z,45.60
2019-05-26T17:20:43.722Z,45.80
2019-05-26T17:23:12.212Z,46.00
2019-05-26T17:25:40.671Z,46.10
2019-05-26T17:28:09.098Z,46.30
2019-05-26T17:30:37.523Z,46.70
2019-05-26T17:33:05.947Z,46.70
2019-05-26T17:35:34.395Z,46.60
2019-05-26T17:38:02.815Z,46.70
2019-05-26T17:40:31.230Z,47.10
2019-05-26T17:42:59.749Z,47.90
2019-05-26T17:45:28.170Z,49.30
2019-05-26T17:47:56.593Z,50.80
2019-05-26T17:50:25.056Z,52.10
2019-05-26T17:52:53.465Z,52.90
2019-05-26T17:55:21.914Z,53.60
2019-05-26T17:57:50.377Z,54.00
2019-05-26T18:00:18.816Z,54.00
2019-05-26T18:02:47.250Z,55.30
2019-05-26T18:05:15.702Z,56.00
2019-05-26T18:07:44.140Z,55.40
2019-05-26T18:10:13.037Z,56.50
2019-05-26T18:12:41.490Z,57.10
2019-05-26T18:15:10.869Z,57.20
2019-05-26T18:17:46.838Z,57.20
2019-05-26T18:20:09.408Z,58.50
2019-05-26T18:22:37.829Z,58.90
2019-05-26T18:25:07.795Z,59.10
2019-05-26T18:27:36.254Z,59.10
2019-05-26T18:30:06.818Z,60.20
2019-05-26T18:32:35.235Z,60.30
2019-05-26T18:35:05.932Z,61.40
2019-05-26T18:37:34.337Z,62.10
2019-05-26T18:40:02.756Z,62.70
2019-05-26T18:42:31.194Z,62.40
2019-05-26T18:44:59.620Z,61.80
2019-05-26T18:47:28.030Z,63.00
2019-05-26T18:49:56.474Z,62.60
2019-05-26T18:52:24.897Z,62.80
2019-05-26T18:54:53.321Z,63.40
2019-05-26T18:57:21.834Z,63.30
2019-05-26T18:59:50.255Z,64.10
2019-05-26T19:02:18.668Z,63.90
2019-05-26T19:04:47.130Z,64.90
2019-05-26T19:07:15.555Z,65.60
2019-05-26T19:09:44.038Z,65.80
2019-05-26T19:12:12.766Z,66.70
2019-05-26T19:14:41.177Z,67.20
2019-05-26T19:17:09.662Z,67.60
2019-05-26T19:19:38.105Z,68.40
2019-05-26T19:22:06.539Z,69.40
2019-05-26T19:24:34.961Z,69.50
2019-05-26T19:27:03.408Z,68.80
2019-05-26T19:29:31.843Z,68.70
2019-05-26T19:32:00.254Z,68.10
2019-05-26T19:34:28.696Z,67.80
2019-05-26T19:36:57.111Z,67.10
2019-05-26T19:39:25.530Z,66.90
2019-05-26T19:41:53.992Z,67.10
2019-05-26T19:44:22.397Z,67.00
2019-05-26T19:46:53.033Z,67.10
2019-05-26T19:49:20.896Z,66.60
2019-05-26T19:51:49.312Z,66.20
2019-05-26T19:54:17.731Z,65.90
2019-05-26T19:56:46.181Z,66.00
2019-05-26T19:59:14.605Z,65.70
2019-05-26T20:01:43.039Z,65.60
2019-05-26T20:04:11.492Z,66.30
2019-05-26T20:06:43.218Z,65.80
2019-05-26T20:09:09.979Z,66.30
2019-05-26T20:11:38.616Z,65.90
2019-05-26T20:14:07.121Z,65.80
2019-05-26T20:16:35.540Z,65.70
2019-05-26T20:19:03.985Z,66.10
2019-05-26T20:21:32.395Z,66.30
2019-05-26T20:24:00.819Z,66.60
2019-05-26T20:26:29.294Z,66.30
2019-05-26T20:28:57.725Z,66.80
2019-05-26T20:31:26.147Z,66.80
2019-05-26T20:33:54.584Z,66.50
2019-05-26T20:36:23.009Z,66.30
2019-05-26T20:38:51.427Z,66.00
2019-05-26T20:41:19.870Z,66.40
2019-05-26T20:43:48.295Z,66.10
2019-05-26T20:46:16.709Z,65.90
2019-05-26T20:48:45.144Z,65.50
2019-05-26T20:51:13.561Z,65.10
2019-05-26T20:53:42.007Z,65.00
2019-05-26T20:56:10.435Z,65.10
2019-05-26T20:58:38.853Z,65.00
2019-05-26T21:01:07.273Z,65.10
2019-05-26T21:03:35.715Z,65.20
2019-05-26T21:06:04.379Z,65.00
2019-05-26T21:08:32.792Z,65.30
2019-05-26T21:11:01.243Z,64.90
2019-05-26T21:13:29.659Z,65.00
2019-05-26T21:15:58.085Z,64.70
2019-05-26T21:18:26.531Z,64.70
2019-05-26T21:20:54.968Z,64.80
2019-05-26T21:23:23.383Z,64.80
2019-05-26T21:25:51.827Z,64.80
2019-05-26T21:28:20.256Z,65.00
2019-05-26T21:30:48.672Z,64.90
2019-05-26T21:33:17.129Z,64.60
2019-05-26T21:35:45.538Z,64.30
2019-05-26T21:38:13.947Z,64.30
2019-05-26T21:40:42.402Z,64.60
2019-05-26T21:43:10.829Z,64.50
2019-05-26T21:45:39.640Z,64.70
2019-05-26T21:48:08.080Z,64.60
2019-05-26T21:50:36.512Z,64.50
2019-05-26T21:53:06.642Z,64.20
2019-05-26T21:55:35.080Z,63.90
2019-05-26T21:58:03.490Z,64.10
2019-05-26T22:00:33.565Z,63.90
2019-05-26T22:03:02.005Z,64.00
2019-05-26T22:05:30.411Z,64.10
2019-05-26T22:07:58.831Z,64.10
2019-05-26T22:10:27.283Z,63.70
2019-05-26T22:12:55.722Z,63.70
2019-05-26T22:15:24.139Z,63.50
2019-05-26T22:17:52.584Z,63.70
2019-05-26T22:20:21.003Z,63.70
2019-05-26T22:22:49.423Z,63.70
2019-05-26T22:25:17.862Z,63.70
2019-05-26T22:27:46.361Z,63.70
2019-05-26T22:30:14.763Z,63.60
2019-05-26T22:32:43.219Z,63.70
2019-05-26T22:35:11.636Z,63.60
2019-05-26T22:37:40.048Z,63.70
2019-05-26T22:40:08.573Z,63.90
2019-05-26T22:42:36.995Z,64.10
2019-05-26T22:45:07.106Z,64.20
2019-05-26T22:47:35.571Z,64.30
2019-05-26T22:50:06.227Z,64.50
2019-05-26T22:52:34.634Z,64.60
2019-05-26T22:55:04.157Z,64.50
2019-05-26T22:57:32.580Z,64.40
2019-05-26T23:00:00.992Z,64.20
2019-05-26T23:02:29.440Z,64.20
2019-05-26T23:04:57.867Z,64.50
2019-05-26T23:07:26.298Z,64.50
2019-05-26T23:09:54.753Z,64.50
2019-05-26T23:12:23.191Z,64.50
2019-05-26T23:14:51.611Z,64.50
2019-05-26T23:17:20.051Z,64.40
2019-05-26T23:19:48.467Z,64.40
2019-05-26T23:22:17.258Z,64.60
2019-05-26T23:24:45.712Z,64.90
2019-05-26T23:27:14.130Z,64.70
2019-05-26T23:29:42.543Z,64.70
2019-05-26T23:32:10.980Z,64.80
2019-05-26T23:34:39.447Z,65.20
2019-05-26T23:37:07.843Z,65.10
2019-05-26T23:39:36.308Z,65.20
2019-05-26T23:42:04.722Z,65.00
2019-05-26T23:44:33.162Z,64.80
2019-05-26T23:47:01.596Z,64.80
2019-05-26T23:49:30.017Z,64.90
2019-05-26T23:51:58.426Z,65.10
2019-05-26T23:54:26.948Z,65.30
2019-05-26T23:56:55.365Z,65.40
2019-05-26T23:59:23.787Z,65.70
